Time;durP1;ratioP1;P1;durP2;ratioP2;P2;SDS_P1;SDS_P2;PMS_P1;PMS_P2;Temp;Humidity;BMP_temperature;BMP_pressure;BME280_temperature;BME280_humidity;BME280_pressure;Samples;Min_cycle;Max_cycle;Signal;HPM_P1;HPM_P2
2023/05/18 00:00:22;;;;;;;0.40;0.40;;;;;;;15.77;100.00;98850.38;5051447;28;20370;-62
2023/05/18 00:02:50;;;;;;;0.83;0.83;;;;;;;15.75;100.00;98850.47;5051679;28;20266;-62
2023/05/18 00:05:18;;;;;;;0.43;0.43;;;;;;;15.75;100.00;98838.38;5051711;28;20378;-62
2023/05/18 00:07:45;;;;;;;0.50;0.50;;;;;;;15.75;100.00;98838.38;5051889;28;20266;-62
2023/05/18 00:10:12;;;;;;;0.60;0.60;;;;;;;15.74;100.00;98831.53;5050413;28;20216;-63
2023/05/18 00:12:38;;;;;;;0.73;0.73;;;;;;;15.78;100.00;98824.44;5051640;28;20227;-62
2023/05/18 00:15:11;;;;;;;0.60;0.60;;;;;;;15.70;100.00;98809.38;5051136;28;20197;-62
2023/05/18 00:17:38;;;;;;;0.60;0.60;;;;;;;15.77;100.00;98824.53;5047147;28;20200;-62
2023/05/18 00:20:09;;;;;;;0.50;0.50;;;;;;;15.75;100.00;98822.03;5050657;28;20203;-63
2023/05/18 00:22:38;;;;;;;0.47;0.47;;;;;;;15.70;100.00;98824.06;5051416;28;20267;-63
2023/05/18 00:25:05;;;;;;;0.60;0.60;;;;;;;15.71;100.00;98825.72;5051206;28;20204;-62
2023/05/18 00:27:34;;;;;;;0.80;0.80;;;;;;;15.69;100.00;98827.56;5050139;28;20224;-62
2023/05/18 00:30:01;;;;;;;0.40;0.40;;;;;;;15.65;100.00;98821.75;5051044;28;20686;-62
2023/05/18 00:32:28;;;;;;;0.40;0.40;;;;;;;15.67;100.00;98830.22;5049303;28;20231;-62
2023/05/18 00:34:57;;;;;;;0.50;0.50;;;;;;;15.61;100.00;98825.44;5051205;28;20209;-62
2023/05/18 00:37:24;;;;;;;0.40;0.40;;;;;;;15.58;100.00;98835.94;5050652;28;20192;-62
2023/05/18 00:39:52;;;;;;;0.50;0.50;;;;;;;15.58;100.00;98829.94;5051143;28;20680;-62
2023/05/18 00:42:19;;;;;;;0.50;0.50;;;;;;;15.55;100.00;98820.63;5050586;28;20201;-62
2023/05/18 00:44:46;;;;;;;0.40;0.40;;;;;;;15.53;100.00;98822.50;5050646;28;20623;-62
2023/05/18 00:47:12;;;;;;;0.40;0.40;;;;;;;15.54;100.00;98818.97;5050305;28;20334;-63
2023/05/18 00:49:39;;;;;;;0.50;0.50;;;;;;;15.52;100.00;98815.66;5050796;28;20200;-62
2023/05/18 00:52:06;;;;;;;0.40;0.40;;;;;;;15.50;100.00;98817.50;5049854;28;20289;-62
2023/05/18 00:54:34;;;;;;;0.50;0.50;;;;;;;15.49;100.00;98823.59;5050634;28;20193;-63
2023/05/18 00:57:03;;;;;;;0.70;0.70;;;;;;;15.48;100.00;98821.09;5050055;28;20208;-63
2023/05/18 00:59:31;;;;;;;0.40;0.40;;;;;;;15.47;100.00;98817.66;5049248;28;20207;-62
2023/05/18 01:01:58;;;;;;;1.60;0.60;;;;;;;15.46;100.00;98826.31;5046621;28;20220;-63
2023/05/18 01:04:26;;;;;;;0.50;0.50;;;;;;;15.45;100.00;98832.41;5050593;28;20557;-62
2023/05/18 01:06:55;;;;;;;0.40;0.40;;;;;;;15.44;100.00;98827.34;5050585;28;20739;-63
2023/05/18 01:09:23;;;;;;;0.50;0.50;;;;;;;15.45;100.00;98828.97;5049565;28;20204;-62
2023/05/18 01:11:57;;;;;;;0.40;0.40;;;;;;;15.41;100.00;98833.50;5050006;28;20270;-62
2023/05/18 01:14:34;;;;;;;0.50;0.50;;;;;;;15.36;100.00;98830.38;5049745;28;20260;-62
2023/05/18 01:17:10;;;;;;;0.50;0.50;;;;;;;15.33;100.00;98835.72;5049629;28;20727;-62
2023/05/18 01:20:07;;;;;;;0.40;0.40;;;;;;;15.33;100.00;98835.72;5047785;28;20197;-63
2023/05/18 01:22:49;;;;;;;0.50;0.50;;;;;;;15.31;100.00;98836.72;5014949;28;20199;-62
2023/05/18 01:25:24;;;;;;;0.43;0.43;;;;;;;15.25;100.00;98830.16;5050024;28;20298;-62
2023/05/18 01:27:54;;;;;;;0.50;0.50;;;;;;;15.25;100.00;98832.72;5050513;28;20236;-62
2023/05/18 01:30:22;;;;;;;0.40;0.40;;;;;;;15.22;100.00;98840.66;5048731;28;20215;-62
2023/05/18 01:32:49;;;;;;;0.47;0.47;;;;;;;15.21;100.00;98831.25;5050476;28;20270;-61
2023/05/18 01:35:16;;;;;;;0.50;0.50;;;;;;;15.20;100.00;98824.44;5049127;28;20664;-62
2023/05/18 01:37:42;;;;;;;0.40;0.40;;;;;;;15.16;100.00;98833.25;5049677;28;20200;-63
2023/05/18 01:40:09;;;;;;;0.50;0.50;;;;;;;15.13;100.00;98834.28;5049579;28;20695;-62
2023/05/18 01:42:43;;;;;;;1.07;1.07;;;;;;;15.13;100.00;98830.88;5049428;28;20298;-62
2023/05/18 01:45:19;;;;;;;0.50;0.50;;;;;;;15.15;100.00;98832.44;5049790;28;20801;-62
2023/05/18 01:47:48;;;;;;;0.40;0.40;;;;;;;15.16;100.00;98833.25;5048609;28;20199;-62
2023/05/18 01:50:18;;;;;;;0.40;0.40;;;;;;;15.18;100.00;98837.44;5049455;28;20205;-62
2023/05/18 01:52:48;;;;;;;0.47;0.47;;;;;;;15.09;100.00;98831.94;5049449;28;20285;-62
2023/05/18 01:55:17;;;;;;;0.50;0.50;;;;;;;15.16;100.00;98849.59;5048619;28;20201;-62
2023/05/18 01:57:46;;;;;;;0.50;0.50;;;;;;;15.18;100.00;98847.78;5046497;28;20204;-62
2023/05/18 02:00:16;;;;;;;0.60;0.60;;;;;;;15.17;100.00;98846.09;5049096;28;20688;-62
2023/05/18 02:02:43;;;;;;;0.60;0.60;;;;;;;15.08;100.00;98845.78;5049086;28;20196;-61
2023/05/18 02:05:11;;;;;;;0.63;0.63;;;;;;;15.06;100.00;98843.28;5049429;28;20247;-62
2023/05/18 02:07:38;;;;;;;0.60;0.60;;;;;;;15.13;100.00;98848.94;5049404;28;20208;-62
2023/05/18 02:10:06;;;;;;;0.50;0.50;;;;;;;15.14;100.00;98851.44;5053784;28;20196;-63
2023/05/18 02:12:32;;;;;;;0.47;0.47;;;;;;;15.12;100.00;98847.28;5050876;28;20227;-62
2023/05/18 02:15:04;;;;;;;0.50;0.50;;;;;;;15.08;100.00;98850.97;5053641;28;20206;-62
2023/05/18 02:17:32;;;;;;;0.50;0.50;;;;;;;15.03;100.00;98842.63;5052608;28;20223;-62
2023/05/18 02:19:59;;;;;;;0.50;0.50;;;;;;;15.10;100.00;98854.28;5053041;28;20212;-62
2023/05/18 02:22:25;;;;;;;0.70;0.70;;;;;;;15.10;100.00;98859.44;5053437;28;20197;-62
2023/05/18 02:24:52;;;;;;;0.50;0.50;;;;;;;15.11;100.00;98861.09;5053241;28;20254;-62
2023/05/18 02:27:19;;;;;;;0.40;0.40;;;;;;;15.11;100.00;98863.69;5052899;28;20228;-62
2023/05/18 02:29:46;;;;;;;0.43;0.43;;;;;;;15.11;100.00;98867.09;5053675;28;20210;-62
2023/05/18 02:32:12;;;;;;;0.50;0.50;;;;;;;15.10;100.00;98864.59;5052755;28;20216;-62
2023/05/18 02:34:41;;;;;;;0.57;0.57;;;;;;;15.12;100.00;98873.91;5052254;28;20220;-64
2023/05/18 02:37:09;;;;;;;0.60;0.60;;;;;;;15.15;100.00;98878.09;5052114;28;20196;-62
2023/05/18 02:39:36;;;;;;;0.50;0.50;;;;;;;15.16;100.00;98879.72;5053080;28;20205;-62
2023/05/18 02:42:02;;;;;;;0.40;0.40;;;;;;;15.17;100.00;98881.41;5052478;28;20207;-62
2023/05/18 02:44:29;;;;;;;0.50;0.50;;;;;;;15.20;100.00;98884.66;5053236;28;20206;-62
2023/05/18 02:46:56;;;;;;;0.40;0.40;;;;;;;15.22;100.00;98887.13;5052842;28;20212;-63
2023/05/18 02:49:23;;;;;;;0.40;0.40;;;;;;;15.23;100.00;98881.91;5052559;28;20211;-62
2023/05/18 02:51:51;;;;;;;0.60;0.60;;;;;;;15.22;100.00;98884.56;5052585;28;20749;-62
2023/05/18 02:54:18;;;;;;;0.67;0.67;;;;;;;15.22;100.00;98889.72;5052591;28;20204;-62
2023/05/18 02:56:44;;;;;;;0.50;0.50;;;;;;;15.24;100.00;98885.31;5053372;28;20203;-62
2023/05/18 02:59:11;;;;;;;0.90;0.90;;;;;;;15.26;100.00;98886.03;5052433;28;20262;-63
2023/05/18 03:01:39;;;;;;;0.50;0.50;;;;;;;15.27;100.00;98887.72;5050847;28;20675;-62
2023/05/18 03:04:06;;;;;;;0.40;0.40;;;;;;;15.28;100.00;98885.97;5052440;28;20200;-62
2023/05/18 03:06:34;;;;;;;0.57;0.57;;;;;;;15.24;100.00;98882.72;5052328;28;20197;-62
2023/05/18 03:09:03;;;;;;;0.50;0.50;;;;;;;15.32;100.00;98896.03;5052350;28;20232;-62
2023/05/18 03:11:30;;;;;;;0.40;0.40;;;;;;;15.31;100.00;98898.69;5052959;28;20663;-63
2023/05/18 03:13:57;;;;;;;0.50;0.50;;;;;;;15.29;100.00;98906.53;5052704;28;20221;-62
2023/05/18 03:16:27;;;;;;;0.57;0.57;;;;;;;15.27;100.00;98900.63;5051869;28;20200;-62
2023/05/18 03:18:53;;;;;;;0.77;0.77;;;;;;;15.24;100.00;98893.91;5051766;28;20204;-62
2023/05/18 03:21:20;;;;;;;0.50;0.50;;;;;;;15.35;100.00;98921.66;5052196;28;20710;-62
2023/05/18 03:23:47;;;;;;;0.40;0.40;;;;;;;15.34;100.00;98920.03;5052258;28;20652;-62
2023/05/18 03:26:15;;;;;;;0.60;0.60;;;;;;;15.34;100.00;98920.03;5051944;28;20257;-63
2023/05/18 03:28:42;;;;;;;0.60;0.60;;;;;;;15.37;100.00;98924.19;5049856;28;20228;-62
2023/05/18 03:31:09;;;;;;;0.50;0.50;;;;;;;15.37;100.00;98930.19;5052014;28;20638;-62
2023/05/18 03:33:36;;;;;;;0.83;0.83;;;;;;;15.36;100.00;98928.50;5052112;28;20217;-63
2023/05/18 03:36:04;;;;;;;0.80;0.80;;;;;;;15.33;100.00;98928.69;5051830;28;20626;-62
2023/05/18 03:38:31;;;;;;;0.40;0.40;;;;;;;15.17;100.00;98910.66;5052062;28;20258;-63
2023/05/18 03:40:58;;;;;;;0.40;0.40;;;;;;;15.30;100.00;98934.03;5051858;28;20205;-62
2023/05/18 03:43:28;;;;;;;0.50;0.50;;;;;;;15.29;100.00;98940.09;5051381;28;20209;-62
2023/05/18 03:45:55;;;;;;;0.50;0.50;;;;;;;15.11;100.00;98907.56;5051628;28;20210;-63
2023/05/18 03:48:22;;;;;;;0.50;0.50;;;;;;;15.26;100.00;98937.69;5051302;28;20208;-62
2023/05/18 03:50:49;;;;;;;0.30;0.30;;;;;;;15.27;100.00;98939.38;5051961;28;20270;-62
2023/05/18 03:53:17;;;;;;;0.60;0.60;;;;;;;15.29;100.00;98942.69;5051677;28;20228;-62
2023/05/18 03:55:44;;;;;;;1.23;0.83;;;;;;;15.28;100.00;98943.63;5051773;28;20291;-61
2023/05/18 03:58:11;;;;;;;0.60;0.60;;;;;;;15.29;100.00;98952.16;5052015;28;20201;-62
2023/05/18 04:00:39;;;;;;;0.43;0.43;;;;;;;15.23;100.00;98949.03;5051597;28;20200;-63
2023/05/18 04:03:06;;;;;;;0.30;0.30;;;;;;;15.21;100.00;98950.88;5051705;28;20201;-62
2023/05/18 04:05:33;;;;;;;0.50;0.50;;;;;;;15.13;100.00;98957.38;5051108;28;20266;-62
2023/05/18 04:07:59;;;;;;;0.40;0.40;;;;;;;15.14;100.00;98953.88;5051699;28;20271;-62
2023/05/18 04:10:26;;;;;;;0.40;0.40;;;;;;;15.17;100.00;98964.03;5051181;28;20251;-62
2023/05/18 04:12:53;;;;;;;0.73;0.73;;;;;;;15.17;100.00;98964.03;5050931;28;20281;-62
2023/05/18 04:15:20;;;;;;;0.40;0.40;;;;;;;15.22;100.00;98965.44;5051102;28;20235;-62
2023/05/18 04:17:49;;;;;;;0.90;0.90;;;;;;;15.26;100.00;98968.69;5051193;28;20207;-62
2023/05/18 04:20:15;;;;;;;0.50;0.50;;;;;;;15.21;100.00;98966.38;5050873;28;20205;-62
2023/05/18 04:22:45;;;;;;;0.63;0.63;;;;;;;15.21;100.00;98975.88;5050888;28;20300;-62
2023/05/18 04:25:11;;;;;;;0.40;0.40;;;;;;;15.26;100.00;98968.69;5051029;28;20251;-62
2023/05/18 04:27:40;;;;;;;0.40;0.40;;;;;;;15.29;100.00;98980.56;5050277;28;20224;-62
2023/05/18 04:30:09;;;;;;;0.60;0.60;;;;;;;15.33;100.00;98975.16;5050693;28;20209;-62
2023/05/18 04:32:36;;;;;;;0.70;0.70;;;;;;;15.34;100.00;98971.69;5050066;28;20217;-63
2023/05/18 04:35:06;;;;;;;0.50;0.50;;;;;;;15.38;100.00;98983.47;5050657;28;20205;-62
2023/05/18 04:37:33;;;;;;;0.50;0.50;;;;;;;15.36;100.00;98967.25;5051190;28;20299;-62
2023/05/18 04:40:01;;;;;;;0.43;0.43;;;;;;;15.44;100.00;98983.16;5050999;28;20254;-62
2023/05/18 04:42:28;;;;;;;0.40;0.40;;;;;;;15.44;100.00;98988.31;5049917;28;20573;-62
2023/05/18 04:44:55;;;;;;;0.40;0.40;;;;;;;15.47;100.00;98984.72;5050933;28;20247;-62
2023/05/18 04:47:22;;;;;;;0.50;0.50;;;;;;;15.48;100.00;98974.31;5050110;28;20217;-62
2023/05/18 04:49:51;;;;;;;0.40;0.40;;;;;;;15.49;100.00;98983.75;5041913;28;20558;-62
2023/05/18 04:52:19;;;;;;;0.70;0.70;;;;;;;15.55;100.00;98979.97;5051230;28;20209;-62
2023/05/18 04:54:46;;;;;;;0.47;0.47;;;;;;;15.49;100.00;98976.00;5050479;28;20201;-62
2023/05/18 04:57:13;;;;;;;0.40;0.40;;;;;;;15.58;100.00;98988.38;5050677;28;20203;-63
2023/05/18 04:59:41;;;;;;;0.50;0.50;;;;;;;15.59;100.00;98992.66;5050728;28;20204;-63
2023/05/18 05:02:08;;;;;;;0.40;0.40;;;;;;;15.60;100.00;98991.75;5051544;28;20204;-62
2023/05/18 05:04:35;;;;;;;0.50;0.50;;;;;;;15.62;100.00;98989.88;5050167;28;20204;-62
2023/05/18 05:07:01;;;;;;;0.50;0.50;;;;;;;15.66;100.00;98998.28;5050324;28;20266;-62
2023/05/18 05:09:30;;;;;;;0.80;0.80;;;;;;;15.69;100.00;98987.78;5050259;28;21382;-62
2023/05/18 05:11:56;;;;;;;0.40;0.40;;;;;;;15.70;100.00;98989.47;5048397;28;20208;-62
2023/05/18 05:14:23;;;;;;;0.50;0.50;;;;;;;15.74;100.00;98994.34;5047143;28;20220;-62
2023/05/18 05:16:50;;;;;;;0.70;0.70;;;;;;;15.64;100.00;98982.88;5047987;28;20269;-62
2023/05/18 05:19:16;;;;;;;0.60;0.60;;;;;;;15.74;100.00;98996.94;5046610;28;20288;-62
2023/05/18 05:21:43;;;;;;;0.60;0.60;;;;;;;15.73;100.00;98995.25;5049207;28;20204;-63
2023/05/18 05:24:10;;;;;;;0.40;0.40;;;;;;;15.72;100.00;98998.78;5050389;28;20201;-62
2023/05/18 05:26:38;;;;;;;0.40;0.40;;;;;;;15.72;100.00;99006.53;5049500;28;20211;-62
2023/05/18 05:29:05;;;;;;;0.50;0.50;;;;;;;15.73;100.00;99008.19;5050183;28;20278;-62
2023/05/18 05:31:33;;;;;;;0.77;0.77;;;;;;;15.75;100.00;99014.09;5049633;28;20271;-63
2023/05/18 05:34:00;;;;;;;0.50;0.50;;;;;;;15.79;100.00;99013.94;5049492;28;20223;-62
2023/05/18 05:36:27;;;;;;;0.43;0.43;;;;;;;15.81;100.00;99017.25;5050075;28;20209;-62
2023/05/18 05:38:53;;;;;;;0.70;0.70;;;;;;;15.70;100.00;99005.78;5044113;28;20252;-64
2023/05/18 05:41:21;;;;;;;0.40;0.40;;;;;;;15.80;100.00;99025.94;5049312;28;20254;-62
2023/05/18 05:43:49;;;;;;;0.40;0.40;;;;;;;15.79;100.00;99019.09;5046208;28;20292;-63
2023/05/18 05:46:16;;;;;;;0.90;0.90;;;;;;;15.88;100.00;99021.16;5045848;28;20621;-63
2023/05/18 05:48:42;;;;;;;0.50;0.50;;;;;;;15.88;100.00;99022.00;5048802;28;20269;-63
2023/05/18 05:51:09;;;;;;;0.40;0.40;;;;;;;15.93;100.00;99019.97;5046254;28;20204;-63
2023/05/18 05:53:36;;;;;;;0.50;0.50;;;;;;;15.99;100.00;99031.72;5047517;28;20310;-63
2023/05/18 05:56:03;;;;;;;0.40;0.40;;;;;;;16.00;100.00;99035.94;5048390;28;20208;-64
2023/05/18 05:58:30;;;;;;;0.40;0.40;;;;;;;16.01;100.00;99050.53;5049998;28;20661;-62
2023/05/18 06:00:58;;;;;;;0.97;0.97;;;;;;;16.06;100.00;99053.69;5049183;28;20201;-63
2023/05/18 06:03:25;;;;;;;0.47;0.47;;;;;;;16.04;100.00;99047.78;5049022;28;20733;-63
2023/05/18 06:05:52;;;;;;;0.40;0.40;;;;;;;16.06;100.00;99048.50;5049630;28;20208;-63
2023/05/18 06:08:18;;;;;;;0.50;0.50;;;;;;;16.10;100.00;99060.34;5048892;28;20211;-63
2023/05/18 06:10:45;;;;;;;0.60;0.60;;;;;;;16.14;100.00;99054.09;5049360;28;20201;-63
2023/05/18 06:13:12;;;;;;;0.73;0.73;;;;;;;16.21;100.00;99053.66;5048785;28;20286;-63
2023/05/18 06:15:39;;;;;;;0.40;0.40;;;;;;;16.26;100.00;99056.78;5049312;28;20564;-63
2023/05/18 06:18:07;;;;;;;0.40;0.40;;;;;;;16.34;100.00;99061.53;5049213;28;20270;-62
2023/05/18 06:20:33;;;;;;;0.40;0.40;;;;;;;16.37;100.00;99055.31;5047258;28;20200;-63
2023/05/18 06:23:00;;;;;;;0.70;0.70;;;;;;;16.38;100.00;99060.41;5048519;28;20200;-63
2023/05/18 06:25:27;;;;;;;0.60;0.60;;;;;;;16.39;100.00;99067.25;5047596;28;20209;-63
2023/05/18 06:27:54;;;;;;;0.40;0.40;;;;;;;16.38;100.00;99065.56;5048109;28;20712;-63
2023/05/18 06:30:21;;;;;;;0.50;0.50;;;;;;;16.32;100.00;99075.47;5047434;28;20735;-63
2023/05/18 06:32:48;;;;;;;0.50;0.50;;;;;;;16.27;100.00;99078.31;5046475;28;20217;-63
2023/05/18 06:35:16;;;;;;;0.40;0.40;;;;;;;16.25;100.00;99082.75;5048632;28;20258;-63
2023/05/18 06:37:43;;;;;;;0.60;0.60;;;;;;;16.27;100.00;99088.66;5047524;28;20205;-63
2023/05/18 06:40:10;;;;;;;0.40;0.40;;;;;;;16.27;100.00;99084.31;5047751;28;20205;-63
2023/05/18 06:42:37;;;;;;;0.37;0.37;;;;;;;16.33;100.00;99088.31;5048509;28;20208;-63
2023/05/18 06:45:05;;;;;;;0.50;0.50;;;;;;;16.38;100.00;99091.44;5047406;28;20243;-63
2023/05/18 06:47:32;;;;;;;0.47;0.47;;;;;;;16.42;100.00;99095.53;5046609;28;20201;-63
2023/05/18 06:49:58;;;;;;;0.50;0.50;;;;;;;16.44;100.00;99101.47;5047227;28;20200;-63
2023/05/18 06:52:26;;;;;;;0.50;0.50;;;;;;;16.39;100.00;99106.06;5046186;28;20204;-64
2023/05/18 06:54:53;;;;;;;0.40;0.40;;;;;;;16.39;100.00;99106.06;5049476;28;20220;-64
2023/05/18 06:57:20;;;;;;;0.40;0.40;;;;;;;16.48;100.00;99113.28;5053995;28;20620;-63
2023/05/18 06:59:52;;;;;;;0.60;0.60;;;;;;;16.52;100.00;99114.75;5054471;28;20203;-63
2023/05/18 07:02:18;;;;;;;0.40;0.40;;;;;;;16.53;100.00;99120.78;5052704;28;20221;-63
2023/05/18 07:04:45;;;;;;;0.40;0.40;;;;;;;16.50;100.00;99123.53;5053271;28;20270;-63
2023/05/18 07:07:12;;;;;;;0.60;0.60;;;;;;;16.57;100.00;99130.91;5051973;28;20209;-63
2023/05/18 07:09:42;;;;;;;0.30;0.30;;;;;;;16.64;100.00;99127.00;5052313;28;20211;-62
2023/05/18 07:12:09;;;;;;;0.57;0.57;;;;;;;16.42;100.00;99134.31;5051935;28;20283;-62
2023/05/18 07:14:35;;;;;;;0.50;0.50;;;;;;;16.31;100.00;99136.72;5053255;28;20224;-63
2023/05/18 07:17:02;;;;;;;0.50;0.50;;;;;;;16.33;100.00;99129.69;5053711;28;20204;-63
2023/05/18 07:19:29;;;;;;;0.73;0.73;;;;;;;16.34;100.00;99131.38;5052405;28;20291;-62
2023/05/18 07:21:58;;;;;;;0.50;0.50;;;;;;;16.34;100.00;99118.44;5052921;28;20201;-62
2023/05/18 07:24:24;;;;;;;0.67;0.67;;;;;;;16.48;100.00;99139.13;5049516;28;20203;-62
2023/05/18 07:26:52;;;;;;;0.60;0.60;;;;;;;16.50;100.00;99142.50;5051828;28;20330;-62
2023/05/18 07:29:19;;;;;;;0.40;0.40;;;;;;;16.53;100.00;99141.47;5052908;28;20287;-62
2023/05/18 07:31:46;;;;;;;0.50;0.50;;;;;;;16.61;100.00;99149.63;5052259;28;20254;-63
2023/05/18 07:34:13;;;;;;;1.43;1.43;;;;;;;16.54;100.00;99143.97;5052732;28;20239;-62
2023/05/18 07:36:39;;;;;;;0.40;0.40;;;;;;;16.53;100.00;99150.06;5049896;28;20258;-62
2023/05/18 07:39:06;;;;;;;0.40;0.40;;;;;;;16.52;100.00;99145.81;5051532;28;20197;-62
2023/05/18 07:41:33;;;;;;;0.50;0.50;;;;;;;16.54;100.00;99149.13;5052237;28;20676;-62
2023/05/18 07:44:01;;;;;;;0.40;0.40;;;;;;;16.53;100.00;99146.66;5047974;28;20661;-63
2023/05/18 07:46:28;;;;;;;0.40;0.40;;;;;;;16.53;100.00;99142.31;5048235;28;20733;-63
2023/05/18 07:48:55;;;;;;;0.40;0.40;;;;;;;16.48;100.00;99149.50;5051086;28;20205;-62
2023/05/18 07:51:22;;;;;;;0.40;0.40;;;;;;;16.49;100.00;99145.16;5052577;28;20242;-62
2023/05/18 07:53:48;;;;;;;0.50;0.50;;;;;;;16.53;100.00;99157.84;5049038;28;20216;-62
2023/05/18 07:56:15;;;;;;;0.30;0.30;;;;;;;16.53;100.00;99152.66;5052126;28;20631;-63
2023/05/18 07:58:43;;;;;;;0.50;0.50;;;;;;;16.50;100.00;99163.19;5052180;28;20748;-62
2023/05/18 08:01:11;;;;;;;0.50;0.50;;;;;;;16.55;100.00;99174.13;5052629;28;20273;-63
2023/05/18 08:03:38;;;;;;;0.50;0.50;;;;;;;16.53;100.00;99175.94;5053798;28;20661;-63
2023/05/18 08:06:05;;;;;;;0.80;0.80;;;;;;;16.36;100.00;99160.56;5049492;28;20204;-62
2023/05/18 08:08:32;;;;;;;0.60;0.60;;;;;;;16.40;100.00;99187.09;5053127;28;20193;-63
2023/05/18 08:10:59;;;;;;;0.40;0.40;;;;;;;16.41;100.00;99179.25;5050812;28;20235;-62
2023/05/18 08:13:27;;;;;;;0.70;0.70;;;;;;;16.49;100.00;99192.56;5050347;28;20205;-63
2023/05/18 08:15:54;;;;;;;0.47;0.47;;;;;;;16.51;100.00;99197.66;5048914;28;20215;-64
2023/05/18 08:18:22;;;;;;;0.40;0.40;;;;;;;16.58;100.00;99192.06;5047934;28;20251;-62
2023/05/18 08:20:52;;;;;;;0.40;0.40;;;;;;;16.58;100.00;99202.41;5049233;28;20661;-62
2023/05/18 08:23:19;;;;;;;0.40;0.40;;;;;;;16.66;100.00;99202.81;5050412;28;20204;-62
2023/05/18 08:25:46;;;;;;;0.50;0.50;;;;;;;16.64;100.00;99207.25;5050089;28;20580;-62
2023/05/18 08:28:13;;;;;;;0.50;0.50;;;;;;;16.65;100.00;99214.09;5048605;28;20259;-63
2023/05/18 08:30:40;;;;;;;0.50;0.50;;;;;;;16.68;100.00;99219.09;5049919;28;20207;-62
2023/05/18 08:33:08;;;;;;;0.40;0.40;;;;;;;16.75;100.00;99220.41;5047344;28;20299;-63
2023/05/18 08:35:36;;;;;;;0.50;0.50;;;;;;;16.87;100.00;99218.00;5049337;28;20278;-63
2023/05/18 08:38:02;;;;;;;0.63;0.63;;;;;;;16.97;100.00;99221.72;5050000;28;20561;-62
2023/05/18 08:40:36;;;;;;;0.30;0.30;;;;;;;17.02;100.00;99222.31;5047387;28;20266;-61
2023/05/18 08:43:10;;;;;;;0.30;0.30;;;;;;;17.07;100.00;99221.09;5049580;28;20278;-61
2023/05/18 08:45:41;;;;;;;0.60;0.60;;;;;;;17.11;100.00;99226.94;5049873;28;20204;-61
2023/05/18 08:48:10;;;;;;;0.40;0.40;;;;;;;17.14;100.00;99231.94;5049644;28;20205;-61
2023/05/18 08:50:41;;;;;;;0.60;0.60;;;;;;;17.20;100.00;99232.41;5050715;28;20213;-61
2023/05/18 08:53:10;;;;;;;0.83;0.83;;;;;;;17.26;100.00;99238.97;5049936;28;20201;-61
2023/05/18 08:55:37;;;;;;;0.50;0.50;;;;;;;17.24;100.00;99248.59;5049317;28;20303;-61
2023/05/18 08:58:07;;;;;;;0.30;0.30;;;;;;;17.31;100.00;99247.31;5051682;28;20204;-61
2023/05/18 09:00:34;;;;;;;0.50;0.50;;;;;;;17.26;100.00;99241.56;5050044;28;20323;-61
2023/05/18 09:03:01;;;;;;;0.50;0.50;;;;;;;17.45;100.00;99246.47;5049246;28;20208;-62
2023/05/18 09:05:28;;;;;;;0.60;0.60;;;;;;;17.50;100.00;99255.63;5049297;28;20212;-62
2023/05/18 09:07:56;;;;;;;0.40;0.40;;;;;;;17.58;100.00;99258.63;5050918;28;20200;-60
2023/05/18 09:10:24;;;;;;;0.40;0.40;;;;;;;17.62;100.00;99260.09;5051427;28;20205;-62
2023/05/18 09:12:53;;;;;;;0.50;0.50;;;;;;;17.68;100.00;99264.91;5050517;28;20286;-61
2023/05/18 09:15:20;;;;;;;0.57;0.57;;;;;;;17.73;100.00;99265.47;5050966;28;20216;-62
2023/05/18 09:17:47;;;;;;;0.50;0.50;;;;;;;17.78;100.00;99276.38;5050559;28;20196;-61
2023/05/18 09:20:15;;;;;;;0.50;0.50;;;;;;;17.86;100.00;99277.69;5051113;28;20201;-61
2023/05/18 09:22:42;;;;;;;0.50;0.50;;;;;;;17.82;100.00;99283.06;5051004;28;20208;-61
2023/05/18 09:25:10;;;;;;;0.53;0.53;;;;;;;17.77;100.00;99284.28;5051367;28;20201;-61
2023/05/18 09:27:37;;;;;;;0.50;0.50;;;;;;;17.76;100.00;99283.44;5048824;28;20658;-61
2023/05/18 09:30:10;;;;;;;0.40;0.40;;;;;;;17.81;100.00;99280.53;5050786;28;20631;-61
2023/05/18 09:32:36;;;;;;;0.53;0.53;;;;;;;17.81;100.00;99286.56;5052563;28;20604;-62
2023/05/18 09:35:04;;;;;;;0.70;0.70;;;;;;;17.72;100.00;99287.13;5050069;28;20270;-61
2023/05/18 09:37:32;;;;;;;0.63;0.63;;;;;;;17.73;100.00;99275.84;5051733;28;20297;-62
2023/05/18 09:40:00;;;;;;;0.60;0.60;;;;;;;17.88;100.00;99283.59;5050574;28;20557;-62
2023/05/18 09:42:35;;;;;;;0.50;0.50;;;;;;;17.99;100.00;99289.81;5050768;28;20592;-62
2023/05/18 09:45:02;;;;;;;0.40;0.40;;;;;;;18.05;100.00;99293.75;5049313;28;20288;-63
2023/05/18 09:47:29;;;;;;;0.50;0.50;;;;;;;18.03;100.00;99293.03;5050684;28;20270;-63
2023/05/18 09:49:57;;;;;;;0.40;0.40;;;;;;;18.08;100.00;99303.94;5047299;28;20205;-63
2023/05/18 09:52:23;;;;;;;0.40;0.40;;;;;;;18.16;100.00;99299.09;5049567;28;20546;-63
2023/05/18 09:54:58;;;;;;;0.33;0.33;;;;;;;18.27;100.00;99301.88;5046802;28;20266;-63
2023/05/18 09:57:25;;;;;;;0.40;0.40;;;;;;;18.33;100.00;99288.50;5049000;28;20219;-63
2023/05/18 09:59:57;;;;;;;0.60;0.60;;;;;;;18.28;100.00;99306.13;5048778;28;20258;-63
2023/05/18 10:02:25;;;;;;;0.67;0.67;;;;;;;18.37;100.00;99310.75;5044537;28;20264;-64
2023/05/18 10:04:52;;;;;;;2.10;1.00;;;;;;;18.47;100.00;99301.44;5049601;28;20545;-63
2023/05/18 10:07:19;;;;;;;0.40;0.40;;;;;;;18.57;100.00;99307.75;5048987;28;20246;-63
2023/05/18 10:09:47;;;;;;;0.50;0.50;;;;;;;18.57;100.00;99310.34;5047730;28;20246;-63
2023/05/18 10:12:14;;;;;;;0.50;0.50;;;;;;;18.52;100.00;99304.59;5048753;28;20292;-63
2023/05/18 10:14:43;;;;;;;0.63;0.63;;;;;;;18.55;100.00;99304.41;5053324;28;20278;-63
2023/05/18 10:17:12;;;;;;;0.50;0.50;;;;;;;18.65;100.00;99310.66;5050762;28;20282;-62
2023/05/18 10:19:41;;;;;;;0.47;0.47;;;;;;;18.72;100.00;99317.13;5050045;28;20250;-63
2023/05/18 10:22:09;;;;;;;0.50;0.50;;;;;;;18.77;100.00;99315.06;5048600;28;20201;-63
2023/05/18 10:24:39;;;;;;;0.40;0.40;;;;;;;18.76;100.00;99321.22;5045655;28;20676;-63
2023/05/18 10:27:08;;;;;;;0.80;0.80;;;;;;;18.84;100.00;99318.94;5047591;28;20235;-63
2023/05/18 10:29:37;;;;;;;0.50;0.50;;;;;;;18.91;100.00;99321.13;5049700;28;20654;-63
2023/05/18 10:32:04;;;;;;;0.60;0.60;;;;;;;18.83;100.00;99312.09;5052491;28;20688;-62
2023/05/18 10:34:33;;;;;;;0.50;0.50;;;;;;;18.90;100.00;99314.28;5053580;28;20225;-63
2023/05/18 10:37:04;;;;;;;0.70;0.70;;;;;;;18.95;100.00;99323.44;5053147;28;20251;-63
2023/05/18 10:39:33;;;;;;;0.40;0.40;;;;;;;18.94;100.00;99321.75;5051169;28;20761;-64
2023/05/18 10:42:02;;;;;;;0.50;0.50;;;;;;;18.99;100.00;99324.06;5052718;28;20264;-63
2023/05/18 10:44:30;;;;;;;0.73;0.73;;;;;;;19.06;100.00;99322.75;5054323;28;20198;-63
2023/05/18 10:46:58;;;;;;;0.63;0.63;;;;;;;19.05;100.00;99324.50;5051963;28;20210;-64
2023/05/18 10:49:27;;;;;;;0.63;0.63;;;;;;;19.09;100.00;99328.56;5052962;28;20207;-64
2023/05/18 10:51:57;;;;;;;0.50;0.50;;;;;;;19.15;100.00;99327.31;5052171;28;20205;-63
2023/05/18 10:54:24;;;;;;;0.50;0.50;;;;;;;19.21;100.00;99325.16;5052374;28;20682;-64
2023/05/18 10:56:53;;;;;;;0.50;0.50;;;;;;;19.26;100.00;99335.22;5050523;28;20216;-63
2023/05/18 10:59:22;;;;;;;0.50;0.50;;;;;;;19.25;100.00;99333.56;5050676;28;20570;-62
2023/05/18 11:01:51;;;;;;;0.50;0.50;;;;;;;19.26;97.76;99337.81;5051500;28;20213;-64
2023/05/18 11:04:23;;;;;;;0.50;0.50;;;;;;;19.17;96.20;99322.84;5053713;28;20278;-63
2023/05/18 11:06:57;;;;;;;0.53;0.53;;;;;;;19.29;96.92;99338.44;5049426;28;20202;-63
2023/05/18 11:09:25;;;;;;;0.60;0.60;;;;;;;19.29;96.94;99337.63;5052202;28;20210;-63
2023/05/18 11:11:54;;;;;;;0.50;0.50;;;;;;;19.29;97.82;99343.66;5051948;28;20748;-63
2023/05/18 11:14:31;;;;;;;0.50;0.50;;;;;;;19.27;97.59;99344.69;5052851;28;20243;-63
2023/05/18 11:17:19;;;;;;;0.63;0.63;;;;;;;19.25;96.27;99349.19;5046984;28;20201;-64
2023/05/18 11:20:12;;;;;;;0.40;0.40;;;;;;;19.24;97.24;99353.53;5047304;28;20759;-63
2023/05/18 11:22:46;;;;;;;0.50;0.50;;;;;;;19.15;95.55;99358.50;5051453;28;20200;-63
2023/05/18 11:25:42;;;;;;;0.50;0.50;;;;;;;19.03;95.97;99361.91;5048651;28;20196;-63
2023/05/18 11:28:12;;;;;;;0.60;0.60;;;;;;;19.01;98.30;99359.41;5050010;28;20277;-63
2023/05/18 11:30:48;;;;;;;0.50;0.50;;;;;;;18.95;98.77;99357.22;5051485;28;20553;-63